createdAt,value
2019-02-15T00:01:36.752Z,0.20
2019-02-15T00:04:06.010Z,0.20
2019-02-15T00:06:35.202Z,0.20
2019-02-15T00:09:06.026Z,0.30
2019-02-15T00:11:35.262Z,0.10
2019-02-15T00:14:04.562Z,-0.10
2019-02-15T00:16:33.744Z,-0.20
2019-02-15T00:19:17.347Z,-0.20
2019-02-15T00:21:48.846Z,-0.10
2019-02-15T00:24:18.143Z,-0.10
2019-02-15T00:26:47.360Z,-0.30
2019-02-15T00:29:16.616Z,-0.20
2019-02-15T00:31:45.940Z,0.00
2019-02-15T00:34:15.241Z,0.00
2019-02-15T00:36:44.563Z,0.00
2019-02-15T00:39:13.802Z,0.10
2019-02-15T00:41:43.332Z,0.00
2019-02-15T00:44:12.542Z,-0.10
2019-02-15T00:47:03.650Z,-0.20
2019-02-15T00:49:54.900Z,-0.30
2019-02-15T00:52:45.937Z,-0.50
2019-02-15T00:55:37.243Z,-0.50
2019-02-15T00:58:25.666Z,-0.60
2019-02-15T01:01:02.954Z,-0.60
2019-02-15T01:04:06.462Z,-0.70
2019-02-15T01:06:52.430Z,-0.70
2019-02-15T01:09:46.730Z,-0.70
2019-02-15T01:12:28.344Z,-0.70
2019-02-15T01:14:57.621Z,-0.70
2019-02-15T01:17:26.945Z,-0.70
2019-02-15T01:19:56.300Z,-0.80
2019-02-15T01:22:25.498Z,-0.90
2019-02-15T01:24:55.174Z,-1.00
2019-02-15T01:27:43.392Z,-1.00
2019-02-15T01:30:43.056Z,-1.00
2019-02-15T01:33:37.649Z,-1.10
2019-02-15T01:36:37.986Z,-1.20
2019-02-15T01:39:26.478Z,-1.20
2019-02-15T01:42:14.678Z,-1.20
2019-02-15T01:44:47.896Z,-1.30
2019-02-15T01:47:21.005Z,-1.30
2019-02-15T01:49:50.163Z,-1.30
2019-02-15T01:52:19.513Z,-1.10
2019-02-15T01:54:48.658Z,-1.10
2019-02-15T01:57:17.858Z,-1.10
2019-02-15T01:59:47.942Z,-1.10
2019-02-15T02:02:17.271Z,-1.00
2019-02-15T02:04:46.512Z,-1.10
2019-02-15T02:07:34.870Z,-1.10
2019-02-15T02:10:05.838Z,-1.10
2019-02-15T02:12:35.137Z,-1.30
2019-02-15T02:15:05.012Z,-1.20
2019-02-15T02:17:34.278Z,-1.30
2019-02-15T02:20:04.577Z,-1.40
2019-02-15T02:22:33.899Z,-1.30
2019-02-15T02:25:03.087Z,-1.30
2019-02-15T02:27:32.367Z,-1.40
2019-02-15T02:30:01.635Z,-1.40
2019-02-15T02:32:30.899Z,-1.50
2019-02-15T02:35:00.393Z,-1.50
2019-02-15T02:37:29.704Z,-1.50
2019-02-15T02:39:59.016Z,-1.40
2019-02-15T02:42:28.272Z,-1.40
2019-02-15T02:44:57.520Z,-1.50
2019-02-15T02:47:26.765Z,-1.50
2019-02-15T02:49:56.029Z,-1.60
2019-02-15T02:52:25.223Z,-1.60
2019-02-15T02:54:54.535Z,-1.50
2019-02-15T02:57:23.703Z,-1.50
2019-02-15T02:59:52.876Z,-1.50
2019-02-15T03:02:22.115Z,-1.50
2019-02-15T03:04:51.288Z,-1.50
2019-02-15T03:07:20.469Z,-1.50
2019-02-15T03:09:49.910Z,-1.50
2019-02-15T03:12:19.264Z,-1.50
2019-02-15T03:14:48.476Z,-1.50
2019-02-15T03:17:17.814Z,-1.60
2019-02-15T03:19:47.065Z,-1.50
2019-02-15T03:22:16.272Z,-1.60
2019-02-15T03:24:45.812Z,-1.60
2019-02-15T03:27:15.119Z,-1.60
2019-02-15T03:29:44.412Z,-1.70
2019-02-15T03:32:13.652Z,-1.80
2019-02-15T03:34:42.863Z,-1.70
2019-02-15T03:37:34.107Z,-1.80
2019-02-15T03:40:24.816Z,-1.80
2019-02-15T03:42:54.084Z,-1.80
2019-02-15T03:45:23.502Z,-1.80
2019-02-15T03:47:52.720Z,-1.80
2019-02-15T03:50:21.968Z,-1.90
2019-02-15T03:52:51.267Z,-1.80
2019-02-15T03:55:20.558Z,-1.80
2019-02-15T03:57:49.936Z,-1.80
2019-02-15T04:00:19.212Z,-1.70
2019-02-15T04:02:48.436Z,-1.60
2019-02-15T04:05:17.729Z,-1.60
2019-02-15T04:07:47.031Z,-1.70
2019-02-15T04:10:16.325Z,-1.70
2019-02-15T04:12:45.591Z,-1.60
2019-02-15T04:15:14.891Z,-1.60
2019-02-15T04:17:44.155Z,-1.70
2019-02-15T04:20:13.501Z,-1.70
2019-02-15T04:22:42.733Z,-1.70
2019-02-15T04:25:11.999Z,-1.80
2019-02-15T04:27:41.248Z,-1.80
2019-02-15T04:30:10.729Z,-1.90
2019-02-15T04:32:40.077Z,-1.90
2019-02-15T04:35:09.367Z,-1.80
2019-02-15T04:37:38.615Z,-1.80
2019-02-15T04:40:08.685Z,-1.80
2019-02-15T04:42:38.021Z,-1.80
2019-02-15T04:45:07.402Z,-1.90
2019-02-15T04:47:36.669Z,-2.00
2019-02-15T04:50:07.243Z,-2.00
2019-02-15T04:52:36.485Z,-2.00
2019-02-15T04:55:06.289Z,-2.00
2019-02-15T04:57:35.656Z,-1.90
2019-02-15T05:00:05.977Z,-1.90
2019-02-15T05:02:35.148Z,-2.00
2019-02-15T05:05:04.526Z,-1.90
2019-02-15T05:07:33.837Z,-1.90
2019-02-15T05:10:03.139Z,-2.00
2019-02-15T05:12:32.645Z,-2.10
2019-02-15T05:15:01.916Z,-2.00
2019-02-15T05:17:31.290Z,-2.10
2019-02-15T05:20:00.633Z,-2.10
2019-02-15T05:22:29.817Z,-2.10
2019-02-15T05:24:59.083Z,-2.10
2019-02-15T05:27:28.251Z,-2.10
2019-02-15T05:29:57.499Z,-2.10
2019-02-15T05:32:26.675Z,-2.00
2019-02-15T05:34:56.021Z,-2.00
2019-02-15T05:37:25.395Z,-2.10
2019-02-15T05:39:54.683Z,-2.00
2019-02-15T05:42:23.947Z,-2.00
2019-02-15T05:45:03.034Z,-2.00
2019-02-15T05:47:24.263Z,-2.00
2019-02-15T05:49:53.423Z,-2.00
2019-02-15T05:52:22.658Z,-2.10
2019-02-15T05:54:51.943Z,-2.10
2019-02-15T05:57:21.212Z,-2.10
2019-02-15T05:59:50.651Z,-2.10
2019-02-15T06:02:19.949Z,-2.10
2019-02-15T06:04:49.292Z,-2.10
2019-02-15T06:07:18.569Z,-2.10
2019-02-15T06:09:52.211Z,-2.10
2019-02-15T06:12:22.636Z,-2.10
2019-02-15T06:14:51.993Z,-2.20
2019-02-15T06:17:21.483Z,-2.20
2019-02-15T06:19:50.682Z,-2.30
2019-02-15T06:22:19.950Z,-2.20
2019-02-15T06:24:49.285Z,-2.20
2019-02-15T06:27:18.739Z,-2.20
2019-02-15T06:29:48.055Z,-2.10
2019-02-15T06:32:17.357Z,-2.00
2019-02-15T06:34:46.655Z,-2.00
2019-02-15T06:37:16.007Z,-2.00
2019-02-15T06:39:45.340Z,-2.10
2019-02-15T06:42:14.794Z,-2.00
2019-02-15T06:44:44.116Z,-1.90
2019-02-15T06:47:13.398Z,-1.50
2019-02-15T06:49:42.634Z,-1.20
2019-02-15T06:52:11.882Z,-1.00
2019-02-15T06:54:41.134Z,-0.80
2019-02-15T06:57:10.396Z,-0.90
2019-02-15T06:59:54.176Z,-0.80
2019-02-15T07:02:45.211Z,-0.80
2019-02-15T07:05:25.740Z,-0.60
2019-02-15T07:07:55.478Z,-0.40
2019-02-15T07:10:24.834Z,-0.30
2019-02-15T07:12:54.213Z,-0.20
2019-02-15T07:15:23.487Z,-0.10
2019-02-15T07:17:52.811Z,-0.20
2019-02-15T07:20:22.208Z,-0.20
2019-02-15T07:22:52.110Z,-0.30
2019-02-15T07:25:21.413Z,-0.30
2019-02-15T07:27:50.811Z,-0.20
2019-02-15T07:30:20.197Z,-0.10
2019-02-15T07:32:49.532Z,0.00
2019-02-15T07:35:18.826Z,0.20
2019-02-15T07:37:48.160Z,0.30
2019-02-15T07:40:17.436Z,0.90
2019-02-15T07:42:46.719Z,1.60
2019-02-15T07:45:17.729Z,2.30
2019-02-15T07:47:47.283Z,2.50
2019-02-15T07:50:16.527Z,3.00
2019-02-15T07:52:45.846Z,3.40
2019-02-15T07:55:15.093Z,4.10
2019-02-15T07:57:44.320Z,4.20
2019-02-15T08:00:14.080Z,4.50
2019-02-15T08:02:43.352Z,5.00
2019-02-15T08:05:12.622Z,5.00
2019-02-15T08:07:41.842Z,5.10
2019-02-15T08:10:11.321Z,5.60
2019-02-15T08:12:41.496Z,5.60
2019-02-15T08:15:10.830Z,5.80
2019-02-15T08:17:40.207Z,6.00
2019-02-15T08:20:10.791Z,6.60
2019-02-15T08:22:40.076Z,6.90
2019-02-15T08:25:09.568Z,7.20
2019-02-15T08:27:38.846Z,7.10
2019-02-15T08:30:09.544Z,7.50
2019-02-15T08:32:38.832Z,7.70
2019-02-15T08:35:08.880Z,7.60
2019-02-15T08:37:38.191Z,7.60
2019-02-15T08:40:08.662Z,8.00
2019-02-15T08:42:37.930Z,8.10
2019-02-15T08:45:08.992Z,7.80
2019-02-15T08:47:39.794Z,7.70
2019-02-15T08:50:10.085Z,8.30
2019-02-15T08:52:39.346Z,8.90
2019-02-15T08:55:09.425Z,9.00
2019-02-15T08:57:38.811Z,9.20
2019-02-15T09:00:09.494Z,9.50
2019-02-15T09:02:39.234Z,9.50
2019-02-15T09:05:10.422Z,8.90
2019-02-15T09:07:39.782Z,9.50
2019-02-15T09:10:10.664Z,10.20
2019-02-15T09:12:40.102Z,10.10
2019-02-15T09:15:12.431Z,10.40
2019-02-15T09:17:41.915Z,10.80
2019-02-15T09:20:12.189Z,11.10
2019-02-15T09:22:41.420Z,11.30
2019-02-15T09:25:11.106Z,11.50
2019-02-15T09:28:14.936Z,11.30
2019-02-15T09:30:47.440Z,11.40
2019-02-15T09:33:16.790Z,12.10
2019-02-15T09:35:46.186Z,12.00
2019-02-15T09:38:15.462Z,12.20
2019-02-15T09:40:44.858Z,12.90
2019-02-15T09:43:14.096Z,13.10
2019-02-15T09:45:43.370Z,13.20
2019-02-15T09:48:12.666Z,12.70
2019-02-15T09:50:42.153Z,12.40
2019-02-15T09:53:11.474Z,12.30
2019-02-15T09:55:40.667Z,12.20
2019-02-15T09:58:09.982Z,12.70
2019-02-15T10:00:39.180Z,12.60
2019-02-15T10:03:08.595Z,12.90
2019-02-15T10:05:37.930Z,13.40
2019-02-15T10:08:07.275Z,13.70
2019-02-15T10:10:36.483Z,14.30
2019-02-15T10:13:05.754Z,14.40
2019-02-15T10:15:35.056Z,15.40
2019-02-15T10:18:04.344Z,14.90
2019-02-15T10:20:33.620Z,14.80
2019-02-15T10:23:02.996Z,15.20
2019-02-15T10:25:32.326Z,16.00
2019-02-15T10:28:01.596Z,15.90
2019-02-15T10:30:30.784Z,16.10
2019-02-15T10:33:00.030Z,16.10
2019-02-15T10:35:29.200Z,16.30
2019-02-15T10:37:58.434Z,16.60
2019-02-15T10:40:27.654Z,16.50
2019-02-15T10:42:56.929Z,16.50
2019-02-15T10:45:26.188Z,17.10
2019-02-15T10:47:55.541Z,17.10
2019-02-15T10:50:24.738Z,17.30
2019-02-15T10:52:54.144Z,17.30
2019-02-15T10:55:23.449Z,17.90
2019-02-15T10:57:52.677Z,18.10
2019-02-15T11:00:22.136Z,18.50
2019-02-15T11:02:51.350Z,18.20
2019-02-15T11:05:20.679Z,18.30
2019-02-15T11:07:49.881Z,18.30
2019-02-15T11:10:19.216Z,18.20
2019-02-15T11:12:48.617Z,17.80
2019-02-15T11:15:17.826Z,17.50
2019-02-15T11:17:47.092Z,18.00
2019-02-15T11:20:16.708Z,18.90
2019-02-15T11:22:46.038Z,17.90
2019-02-15T11:25:15.387Z,18.00
2019-02-15T11:27:44.675Z,17.50
2019-02-15T11:30:14.684Z,18.50
2019-02-15T11:32:43.909Z,19.00
2019-02-15T11:35:13.190Z,18.70
2019-02-15T11:37:42.479Z,18.20
2019-02-15T11:40:12.625Z,17.90
2019-02-15T11:42:41.802Z,17.40
2019-02-15T11:45:11.888Z,17.60
2019-02-15T11:47:41.077Z,17.70
2019-02-15T11:50:11.624Z,18.10
2019-02-15T11:52:40.789Z,19.00
2019-02-15T11:55:10.097Z,18.90
2019-02-15T11:57:39.311Z,19.60
2019-02-15T12:00:14.369Z,18.80
2019-02-15T12:02:42.256Z,19.30
2019-02-15T12:05:11.544Z,20.00
2019-02-15T12:07:40.837Z,20.90
2019-02-15T12:10:10.036Z,21.10
2019-02-15T12:12:39.313Z,20.60
2019-02-15T12:15:08.901Z,21.00
2019-02-15T12:17:38.234Z,21.70
2019-02-15T12:20:08.549Z,22.10
2019-02-15T12:22:38.096Z,20.80
2019-02-15T12:25:07.504Z,21.70
2019-02-15T12:27:36.691Z,22.50
2019-02-15T12:30:06.690Z,21.60
2019-02-15T12:32:35.891Z,20.50
2019-02-15T12:35:05.260Z,20.80
2019-02-15T12:37:34.464Z,21.30
2019-02-15T12:40:03.712Z,21.40
2019-02-15T12:42:32.968Z,21.50
2019-02-15T12:45:02.183Z,22.90
2019-02-15T12:47:31.399Z,22.70
2019-02-15T12:50:00.690Z,20.90
2019-02-15T12:52:29.992Z,19.10
2019-02-15T12:54:59.239Z,17.80
2019-02-15T12:57:28.494Z,16.20
2019-02-15T12:59:57.662Z,15.50
2019-02-15T13:02:26.822Z,14.70
2019-02-15T13:04:56.068Z,14.40
2019-02-15T13:07:25.253Z,14.10
2019-02-15T13:09:54.426Z,13.90
2019-02-15T13:12:23.714Z,13.80
2019-02-15T13:14:52.901Z,13.30
2019-02-15T13:17:24.853Z,13.00
2019-02-15T13:19:53.230Z,13.10
2019-02-15T13:22:22.511Z,13.00
2019-02-15T13:24:51.869Z,13.10
2019-02-15T13:27:21.187Z,12.60
2019-02-15T13:29:50.778Z,12.50
2019-02-15T13:32:20.155Z,12.50
2019-02-15T13:34:49.500Z,12.10
2019-02-15T13:37:18.801Z,12.00
2019-02-15T13:39:48.081Z,11.90
2019-02-15T13:42:17.416Z,11.90
2019-02-15T13:44:46.812Z,11.80
2019-02-15T13:47:16.282Z,12.00
2019-02-15T13:49:45.523Z,11.90
2019-02-15T13:52:14.715Z,11.80
2019-02-15T13:54:43.996Z,11.70
2019-02-15T13:57:13.241Z,11.80
2019-02-15T13:59:42.506Z,11.80
2019-02-15T14:02:11.715Z,11.70
2019-02-15T14:04:40.948Z,11.70
2019-02-15T14:07:18.307Z,11.60
2019-02-15T14:09:47.582Z,11.60
2019-02-15T14:12:16.930Z,11.70
2019-02-15T14:14:46.210Z,11.70
2019-02-15T14:17:15.416Z,11.70
2019-02-15T14:19:44.680Z,11.80
2019-02-15T14:22:14.030Z,11.70
2019-02-15T14:24:43.335Z,11.80
2019-02-15T14:27:12.603Z,11.70
2019-02-15T14:29:41.948Z,11.70
2019-02-15T14:32:11.355Z,11.70
2019-02-15T14:34:40.650Z,11.60
2019-02-15T14:37:09.980Z,11.60
2019-02-15T14:39:39.311Z,11.50
2019-02-15T14:42:08.619Z,11.50
2019-02-15T14:44:41.170Z,11.50
2019-02-15T14:47:10.425Z,11.40
2019-02-15T14:49:39.764Z,11.30
2019-02-15T14:52:09.009Z,11.30
2019-02-15T14:54:38.304Z,11.30
2019-02-15T14:57:07.650Z,11.30
2019-02-15T14:59:38.926Z,11.40
2019-02-15T15:02:08.017Z,11.40
2019-02-15T15:04:37.391Z,11.30
2019-02-15T15:07:06.816Z,11.20
2019-02-15T15:09:36.110Z,11.20
2019-02-15T15:12:05.483Z,11.10
2019-02-15T15:14:34.883Z,11.00
2019-02-15T15:17:04.443Z,11.00
2019-02-15T15:19:33.733Z,10.90
2019-02-15T15:22:03.059Z,10.90
2019-02-15T15:24:32.335Z,10.80
2019-02-15T15:27:01.637Z,10.70
2019-02-15T15:29:30.980Z,10.70
2019-02-15T15:32:00.355Z,10.70
2019-02-15T15:34:29.644Z,10.60
2019-02-15T15:36:58.856Z,10.60
2019-02-15T15:39:28.115Z,10.50
2019-02-15T15:41:57.657Z,10.50
2019-02-15T15:44:27.038Z,10.50
2019-02-15T15:46:56.599Z,10.50
2019-02-15T15:49:25.895Z,10.60
2019-02-15T15:51:55.202Z,11.90
2019-02-15T15:54:24.484Z,13.80
2019-02-15T15:56:53.821Z,14.60
2019-02-15T15:59:23.041Z,14.10
2019-02-15T16:01:52.358Z,13.40
2019-02-15T16:04:21.747Z,12.70
2019-02-15T16:06:51.079Z,11.90
2019-02-15T16:09:20.389Z,11.30
2019-02-15T16:11:49.670Z,10.70
2019-02-15T16:14:19.055Z,10.30
2019-02-15T16:16:48.473Z,10.00
2019-02-15T16:19:17.813Z,9.80
2019-02-15T16:21:47.234Z,9.60
2019-02-15T16:24:16.479Z,9.40
2019-02-15T16:26:45.757Z,9.20
2019-02-15T16:29:14.985Z,9.10
2019-02-15T16:31:44.335Z,9.00
2019-02-15T16:34:13.653Z,8.80
2019-02-15T16:36:42.846Z,8.70
2019-02-15T16:39:12.155Z,8.60
2019-02-15T16:41:41.328Z,8.50
2019-02-15T16:44:10.657Z,8.40
2019-02-15T16:46:39.988Z,8.20
2019-02-15T16:49:09.379Z,8.10
2019-02-15T16:51:38.706Z,8.00
2019-02-15T16:54:08.040Z,7.90
2019-02-15T16:56:37.381Z,7.80
2019-02-15T16:59:06.618Z,7.70
2019-02-15T17:01:35.942Z,7.60
2019-02-15T17:04:05.236Z,7.50
2019-02-15T17:06:34.534Z,7.40
2019-02-15T17:09:06.459Z,7.30
2019-02-15T17:11:35.760Z,7.20
2019-02-15T17:14:05.035Z,7.20
2019-02-15T17:16:34.343Z,7.00
2019-02-15T17:19:03.620Z,6.90
2019-02-15T17:21:32.950Z,6.80
2019-02-15T17:24:02.337Z,6.80
2019-02-15T17:26:31.704Z,6.70
2019-02-15T17:29:00.991Z,6.60
2019-02-15T17:31:30.340Z,6.50
2019-02-15T17:33:59.635Z,6.40
2019-02-15T17:36:28.907Z,6.40
2019-02-15T17:38:58.186Z,6.30
2019-02-15T17:41:27.503Z,6.20
2019-02-15T17:43:56.692Z,6.10
2019-02-15T17:46:25.939Z,6.10
2019-02-15T17:49:00.769Z,6.00
2019-02-15T17:51:26.194Z,5.90
2019-02-15T17:53:55.546Z,5.80
2019-02-15T17:56:24.859Z,5.80
2019-02-15T17:58:54.192Z,5.70
2019-02-15T18:01:23.563Z,5.70
2019-02-15T18:03:52.957Z,5.70
2019-02-15T18:06:22.279Z,5.70
2019-02-15T18:08:51.451Z,5.80
2019-02-15T18:11:20.728Z,5.70
2019-02-15T18:13:49.986Z,5.50
2019-02-15T18:16:19.369Z,5.40
2019-02-15T18:18:48.554Z,5.30
2019-02-15T18:21:17.943Z,5.20
2019-02-15T18:23:47.252Z,5.10
2019-02-15T18:26:16.557Z,5.00
2019-02-15T18:28:45.842Z,5.00
2019-02-15T18:31:16.476Z,5.00
2019-02-15T18:33:45.819Z,4.90
2019-02-15T18:36:15.244Z,4.80
2019-02-15T18:38:44.587Z,4.70
2019-02-15T18:41:13.981Z,4.70
2019-02-15T18:43:43.255Z,4.60
2019-02-15T18:46:12.546Z,4.50
2019-02-15T18:48:41.953Z,4.50
2019-02-15T18:51:11.344Z,4.60
2019-02-15T18:53:40.629Z,4.60
2019-02-15T18:56:10.011Z,4.50
2019-02-15T18:58:39.372Z,4.50
2019-02-15T19:01:08.680Z,4.50
2019-02-15T19:03:37.952Z,4.30
2019-02-15T19:06:07.358Z,4.20
2019-02-15T19:08:36.718Z,4.40
2019-02-15T19:11:05.996Z,4.20
2019-02-15T19:13:35.316Z,4.10
2019-02-15T19:16:04.682Z,4.10
2019-02-15T19:18:34.039Z,4.00
2019-02-15T19:21:03.518Z,4.00
2019-02-15T19:23:32.820Z,4.50
2019-02-15T19:26:02.279Z,4.30
2019-02-15T19:28:31.816Z,4.10
2019-02-15T19:31:01.179Z,4.00
2019-02-15T19:33:30.527Z,3.90
2019-02-15T19:35:59.835Z,3.80
2019-02-15T19:38:29.218Z,3.70
2019-02-15T19:40:58.483Z,3.60
2019-02-15T19:43:27.867Z,3.50
2019-02-15T19:45:57.275Z,3.50
2019-02-15T19:48:26.642Z,3.40
2019-02-15T19:50:56.042Z,3.40
2019-02-15T19:53:25.423Z,3.30
2019-02-15T19:55:54.916Z,3.30
2019-02-15T19:58:24.332Z,3.20
2019-02-15T20:00:53.699Z,3.30
2019-02-15T20:03:25.086Z,3.30
2019-02-15T20:05:54.498Z,3.30
2019-02-15T20:08:23.969Z,3.20
2019-02-15T20:10:53.249Z,3.10
2019-02-15T20:13:22.694Z,3.00
2019-02-15T20:15:52.347Z,2.90
2019-02-15T20:18:21.621Z,2.90
2019-02-15T20:20:50.978Z,2.90
2019-02-15T20:23:20.352Z,2.80
2019-02-15T20:25:49.714Z,2.70
2019-02-15T20:28:18.952Z,2.80
2019-02-15T20:30:48.226Z,3.00
2019-02-15T20:33:17.522Z,2.80
2019-02-15T20:35:47.064Z,2.80
2019-02-15T20:38:16.362Z,2.70
2019-02-15T20:40:45.669Z,2.60
2019-02-15T20:43:14.975Z,2.50
2019-02-15T20:45:44.366Z,2.40
2019-02-15T20:48:13.684Z,2.40
2019-02-15T20:50:43.017Z,2.40
2019-02-15T20:53:12.474Z,2.40
2019-02-15T20:55:41.830Z,2.40
2019-02-15T20:58:11.038Z,2.30
2019-02-15T21:00:40.328Z,2.30
2019-02-15T21:03:09.742Z,2.20
2019-02-15T21:05:38.963Z,2.20
2019-02-15T21:08:08.250Z,2.10
2019-02-15T21:10:37.612Z,2.10
2019-02-15T21:13:07.025Z,2.00
2019-02-15T21:15:36.377Z,2.10
2019-02-15T21:18:05.672Z,2.10
2019-02-15T21:20:34.967Z,2.00
2019-02-15T21:23:04.359Z,1.90
2019-02-15T21:25:33.728Z,2.00
2019-02-15T21:28:03.108Z,2.00
2019-02-15T21:30:32.378Z,1.90
2019-02-15T21:33:01.688Z,1.90
2019-02-15T21:35:30.984Z,1.80
2019-02-15T21:38:00.525Z,1.90
2019-02-15T21:40:29.889Z,1.90
2019-02-15T21:42:59.169Z,2.00
2019-02-15T21:45:28.610Z,1.90
2019-02-15T21:47:57.864Z,1.80
2019-02-15T21:50:27.228Z,1.70
2019-02-15T21:52:56.620Z,1.70
2019-02-15T21:55:26.031Z,1.60
2019-02-15T21:58:01.647Z,1.50
2019-02-15T22:00:27.210Z,1.50
2019-02-15T22:02:56.752Z,1.50
2019-02-15T22:05:26.110Z,1.50
2019-02-15T22:07:55.520Z,1.50
2019-02-15T22:10:24.909Z,1.50
2019-02-15T22:12:54.336Z,1.40
2019-02-15T22:15:23.809Z,1.40
2019-02-15T22:17:53.386Z,1.40
2019-02-15T22:20:26.771Z,1.40
2019-02-15T22:22:53.788Z,1.30
2019-02-15T22:25:23.173Z,1.20
2019-02-15T22:27:52.605Z,1.20
2019-02-15T22:30:22.026Z,1.10
2019-02-15T22:32:51.236Z,1.20
2019-02-15T22:35:20.590Z,1.10
2019-02-15T22:37:50.154Z,1.10
2019-02-15T22:40:34.502Z,1.10
2019-02-15T22:43:16.852Z,1.00
2019-02-15T22:45:46.223Z,1.00
2019-02-15T22:48:15.490Z,1.00
2019-02-15T22:50:44.683Z,1.00
2019-02-15T22:53:13.957Z,1.00
2019-02-15T22:55:43.226Z,1.00
2019-02-15T22:58:12.491Z,1.10
2019-02-15T23:00:48.785Z,1.10
2019-02-15T23:03:20.014Z,1.20
2019-02-15T23:05:49.336Z,1.30
2019-02-15T23:08:18.623Z,1.30
2019-02-15T23:10:48.045Z,1.10
2019-02-15T23:13:17.433Z,1.00
2019-02-15T23:15:46.911Z,0.90
2019-02-15T23:18:16.549Z,0.70
2019-02-15T23:20:45.912Z,0.70
2019-02-15T23:23:15.433Z,0.80
2019-02-15T23:25:44.930Z,0.80
2019-02-15T23:28:14.368Z,0.80
2019-02-15T23:30:43.695Z,0.90
2019-02-15T23:33:13.081Z,0.80
2019-02-15T23:35:42.543Z,0.80
2019-02-15T23:38:12.071Z,0.60
2019-02-15T23:40:42.987Z,0.60
2019-02-15T23:43:12.321Z,0.50
2019-02-15T23:45:41.893Z,0.40
2019-02-15T23:48:11.283Z,0.40
2019-02-15T23:50:44.361Z,0.30
2019-02-15T23:53:13.784Z,0.40
2019-02-15T23:55:43.635Z,0.30
2019-02-15T23:58:12.960Z,0.20
